createdAt,value
2018-12-25T00:01:36.394Z,1.23
2018-12-25T00:04:06.602Z,1.33
2018-12-25T00:06:36.325Z,1.47
2018-12-25T00:09:07.258Z,1.83
2018-12-25T00:11:37.004Z,1.50
2018-12-25T00:14:06.801Z,1.20
2018-12-25T00:16:36.513Z,1.60
2018-12-25T00:19:06.569Z,1.30
2018-12-25T00:21:36.813Z,1.20
2018-12-25T00:24:06.483Z,1.53
2018-12-25T00:26:36.190Z,1.53
2018-12-25T00:29:05.872Z,1.30
2018-12-25T00:31:35.615Z,1.43
2018-12-25T00:34:05.390Z,1.30
2018-12-25T00:36:35.063Z,2.03
2018-12-25T00:39:06.109Z,1.30
2018-12-25T00:41:35.792Z,1.23
2018-12-25T00:44:05.575Z,1.00
2018-12-25T00:46:35.298Z,1.43
2018-12-25T00:49:04.983Z,1.23
2018-12-25T00:51:34.664Z,1.57
2018-12-25T00:54:04.442Z,1.37
2018-12-25T00:56:34.139Z,1.60
2018-12-25T00:59:05.074Z,1.13
2018-12-25T01:01:34.901Z,1.30
2018-12-25T01:04:04.660Z,1.80
2018-12-25T01:06:34.436Z,1.27
2018-12-25T01:09:07.934Z,1.33
2018-12-25T01:11:37.637Z,0.97
2018-12-25T01:14:07.339Z,1.40
2018-12-25T01:16:37.037Z,1.40
2018-12-25T01:19:06.731Z,1.20
2018-12-25T01:21:36.465Z,1.37
2018-12-25T01:24:07.510Z,1.70
2018-12-25T01:26:37.220Z,1.40
2018-12-25T01:29:06.909Z,2.03
2018-12-25T01:31:36.587Z,1.07
2018-12-25T01:34:06.259Z,1.47
2018-12-25T01:36:36.042Z,1.30
2018-12-25T01:39:06.588Z,1.80
2018-12-25T01:41:36.270Z,1.00
2018-12-25T01:44:06.013Z,1.30
2018-12-25T01:46:35.718Z,1.03
2018-12-25T01:49:05.433Z,1.00
2018-12-25T01:51:37.583Z,1.30
2018-12-25T01:54:06.558Z,1.30
2018-12-25T01:56:36.306Z,1.20
2018-12-25T01:59:06.074Z,1.67
2018-12-25T02:01:36.074Z,1.57
2018-12-25T02:04:05.767Z,1.77
2018-12-25T02:06:35.530Z,1.03
2018-12-25T02:09:06.621Z,1.60
2018-12-25T02:11:36.312Z,1.17
2018-12-25T02:14:06.010Z,1.13
2018-12-25T02:16:35.719Z,1.00
2018-12-25T02:19:05.441Z,1.60
2018-12-25T02:21:35.120Z,1.20
2018-12-25T02:24:04.975Z,1.13
2018-12-25T02:26:34.658Z,1.50
2018-12-25T02:29:16.608Z,1.20
2018-12-25T02:31:46.378Z,1.67
2018-12-25T02:34:16.160Z,1.50
2018-12-25T02:36:45.832Z,1.17
2018-12-25T02:39:24.833Z,1.40
2018-12-25T02:41:58.450Z,1.57
2018-12-25T02:44:28.151Z,1.03
2018-12-25T02:46:57.842Z,1.57
2018-12-25T02:49:27.543Z,1.53
2018-12-25T02:51:57.261Z,1.50
2018-12-25T02:54:26.966Z,1.40
2018-12-25T02:56:56.635Z,1.83
2018-12-25T02:59:27.267Z,1.20
2018-12-25T03:01:56.943Z,1.47
2018-12-25T03:04:26.635Z,1.53
2018-12-25T03:06:56.447Z,1.03
2018-12-25T03:09:26.183Z,1.83
2018-12-25T03:11:55.895Z,1.23
2018-12-25T03:14:25.603Z,1.33
2018-12-25T03:16:55.373Z,1.53
2018-12-25T03:19:25.084Z,1.33
2018-12-25T03:21:56.415Z,1.47
2018-12-25T03:24:27.278Z,0.93
2018-12-25T03:26:57.218Z,1.13
2018-12-25T03:29:26.904Z,1.27
2018-12-25T03:31:56.705Z,1.80
2018-12-25T03:34:26.455Z,1.20
2018-12-25T03:36:56.147Z,1.30
2018-12-25T03:39:25.908Z,1.20
2018-12-25T03:41:55.720Z,1.37
2018-12-25T03:44:25.443Z,3.07
2018-12-25T03:46:55.637Z,1.60
2018-12-25T03:49:25.461Z,2.23
2018-12-25T03:51:55.205Z,1.10
2018-12-25T03:54:24.920Z,1.60
2018-12-25T03:56:54.612Z,1.40
2018-12-25T03:59:24.319Z,1.50
2018-12-25T04:01:54.018Z,1.73
2018-12-25T04:04:23.688Z,1.47
2018-12-25T04:06:53.464Z,2.07
2018-12-25T04:09:23.145Z,1.93
2018-12-25T04:11:52.843Z,1.33
2018-12-25T04:14:22.507Z,1.53
2018-12-25T04:16:52.183Z,1.20
2018-12-25T04:19:21.870Z,1.77
2018-12-25T04:21:51.576Z,1.30
2018-12-25T04:24:21.318Z,1.27
2018-12-25T04:26:51.004Z,2.03
2018-12-25T04:29:20.693Z,1.63
2018-12-25T04:31:50.488Z,1.40
2018-12-25T04:34:20.267Z,1.67
2018-12-25T04:36:49.953Z,1.67
2018-12-25T04:39:20.927Z,1.50
2018-12-25T04:41:50.612Z,1.47
2018-12-25T04:44:23.369Z,1.40
2018-12-25T04:46:53.057Z,1.47
2018-12-25T04:49:22.734Z,1.93
2018-12-25T04:51:52.492Z,1.80
2018-12-25T04:54:22.202Z,1.40
2018-12-25T04:56:52.030Z,1.67
2018-12-25T04:59:21.987Z,1.03
2018-12-25T05:01:51.755Z,1.57
2018-12-25T05:04:21.450Z,2.00
2018-12-25T05:06:51.142Z,1.40
2018-12-25T05:09:20.838Z,0.90
2018-12-25T05:11:50.514Z,1.83
2018-12-25T05:14:20.206Z,1.50
2018-12-25T05:16:50.060Z,1.40
2018-12-25T05:19:19.766Z,1.27
2018-12-25T05:21:49.465Z,1.23
2018-12-25T05:24:19.132Z,1.60
2018-12-25T05:26:48.843Z,1.00
2018-12-25T05:29:18.543Z,1.63
2018-12-25T05:31:48.311Z,2.07
2018-12-25T05:34:18.014Z,1.47
2018-12-25T05:36:47.688Z,1.60
2018-12-25T05:39:17.455Z,1.20
2018-12-25T05:41:47.180Z,1.83
2018-12-25T05:44:16.949Z,2.97
2018-12-25T05:46:46.637Z,1.50
2018-12-25T05:49:16.322Z,1.50
2018-12-25T05:51:46.008Z,1.63
2018-12-25T05:54:15.755Z,1.20
2018-12-25T05:56:45.445Z,1.43
2018-12-25T05:59:15.137Z,1.77
2018-12-25T06:01:44.799Z,1.30
2018-12-25T06:04:14.521Z,1.57
2018-12-25T06:06:44.216Z,1.60
2018-12-25T06:09:13.945Z,1.50
2018-12-25T06:11:43.620Z,1.00
2018-12-25T06:14:13.331Z,1.70
2018-12-25T06:16:42.993Z,1.10
2018-12-25T06:19:12.694Z,1.33
2018-12-25T06:21:42.374Z,1.27
2018-12-25T06:24:12.070Z,1.17
2018-12-25T06:26:41.749Z,1.90
2018-12-25T06:29:11.445Z,1.90
2018-12-25T06:31:41.201Z,1.20
2018-12-25T06:34:10.887Z,1.67
2018-12-25T06:36:40.591Z,1.20
2018-12-25T06:39:10.303Z,1.40
2018-12-25T06:41:40.048Z,2.13
2018-12-25T06:44:09.760Z,1.50
2018-12-25T06:46:39.435Z,1.67
2018-12-25T06:49:09.138Z,1.60
2018-12-25T06:51:38.829Z,1.53
2018-12-25T06:54:08.517Z,1.30
2018-12-25T06:56:39.704Z,1.47
2018-12-25T06:59:09.858Z,1.77
2018-12-25T07:01:39.562Z,2.30
2018-12-25T07:04:09.235Z,1.13
2018-12-25T07:06:38.929Z,1.23
2018-12-25T07:09:08.697Z,1.00
2018-12-25T07:11:39.940Z,1.73
2018-12-25T07:14:09.694Z,1.57
2018-12-25T07:16:39.369Z,1.87
2018-12-25T07:19:09.036Z,1.03
2018-12-25T07:21:38.745Z,1.87
2018-12-25T07:24:08.486Z,1.27
2018-12-25T07:26:38.206Z,1.80
2018-12-25T07:29:07.874Z,1.67
2018-12-25T07:31:37.586Z,1.53
2018-12-25T07:34:07.275Z,2.00
2018-12-25T07:36:36.971Z,1.80
2018-12-25T07:39:06.906Z,2.30
2018-12-25T07:41:37.038Z,1.53
2018-12-25T07:44:06.786Z,1.70
2018-12-25T07:46:36.522Z,1.57
2018-12-25T07:49:06.195Z,1.80
2018-12-25T07:51:35.998Z,1.50
2018-12-25T07:54:05.831Z,2.20
2018-12-25T07:56:35.665Z,1.37
2018-12-25T07:59:06.878Z,1.80
2018-12-25T08:01:36.643Z,2.27
2018-12-25T08:04:10.746Z,2.63
2018-12-25T08:06:40.485Z,1.77
2018-12-25T08:09:10.234Z,1.60
2018-12-25T08:11:39.969Z,2.10
2018-12-25T08:14:09.729Z,2.00
2018-12-25T08:16:39.421Z,1.43
2018-12-25T08:19:09.118Z,1.90
2018-12-25T08:21:38.827Z,1.67
2018-12-25T08:24:08.553Z,2.10
2018-12-25T08:26:39.234Z,2.63
2018-12-25T08:29:49.305Z,2.33
2018-12-25T08:32:19.026Z,1.80
2018-12-25T08:34:48.708Z,2.83
2018-12-25T08:37:18.471Z,2.03
2018-12-25T08:39:48.163Z,1.50
2018-12-25T08:42:17.879Z,1.53
2018-12-25T08:44:47.614Z,1.87
2018-12-25T08:47:17.322Z,2.20
2018-12-25T08:49:47.010Z,1.97
2018-12-25T08:52:18.286Z,1.33
2018-12-25T08:54:48.119Z,1.90
2018-12-25T08:57:17.837Z,2.27
2018-12-25T08:59:47.566Z,2.10
2018-12-25T09:02:17.342Z,2.37
2018-12-25T09:04:47.019Z,2.50
2018-12-25T09:07:16.800Z,2.90
2018-12-25T09:09:46.541Z,3.20
2018-12-25T09:12:16.375Z,2.37
2018-12-25T09:14:46.168Z,2.10
2018-12-25T09:17:15.886Z,2.93
2018-12-25T09:19:45.589Z,3.27
2018-12-25T09:22:15.400Z,4.47
2018-12-25T09:24:45.308Z,2.73
2018-12-25T09:27:15.045Z,2.20
2018-12-25T09:30:11.529Z,2.77
2018-12-25T09:32:34.716Z,2.00
2018-12-25T09:35:05.361Z,2.30
2018-12-25T09:37:35.387Z,2.23
2018-12-25T09:40:07.192Z,2.03
2018-12-25T09:42:36.954Z,2.00
2018-12-25T09:45:06.878Z,3.40
2018-12-25T09:47:36.589Z,2.83
2018-12-25T09:50:06.441Z,2.57
2018-12-25T09:52:36.142Z,3.23
2018-12-25T09:55:06.104Z,2.10
2018-12-25T09:57:35.826Z,2.40
2018-12-25T10:00:09.637Z,2.20
2018-12-25T10:02:39.387Z,3.93
2018-12-25T10:05:10.009Z,2.63
2018-12-25T10:10:37.422Z,2.03
2018-12-25T10:13:07.340Z,2.70
2018-12-25T10:15:37.126Z,2.40
2018-12-25T10:18:06.872Z,1.67
2018-12-25T10:20:36.555Z,1.80
2018-12-25T10:23:06.281Z,2.87
2018-12-25T10:25:36.020Z,1.83
2018-12-25T10:28:05.731Z,1.70
2018-12-25T10:30:39.336Z,1.43
2018-12-25T10:33:09.207Z,1.90
2018-12-25T10:35:39.281Z,2.30
2018-12-25T10:38:09.946Z,1.57
2018-12-25T10:40:39.842Z,1.70
2018-12-25T10:43:09.561Z,2.30
2018-12-25T10:45:40.124Z,1.80
2018-12-25T10:48:09.990Z,2.07
2018-12-25T10:50:41.766Z,1.63
2018-12-25T10:53:11.154Z,2.93
2018-12-25T10:55:41.605Z,1.97
2018-12-25T10:58:11.349Z,1.93
2018-12-25T11:00:43.704Z,1.57
2018-12-25T11:03:13.535Z,2.33
2018-12-25T11:05:44.045Z,2.33
2018-12-25T11:08:13.893Z,1.57
2018-12-25T11:10:44.072Z,1.30
2018-12-25T11:13:14.024Z,1.90
2018-12-25T11:15:45.275Z,1.97
2018-12-25T11:18:15.426Z,1.27
2018-12-25T11:20:45.174Z,1.50
2018-12-25T11:23:16.525Z,2.40
2018-12-25T11:25:47.803Z,1.53
2018-12-25T11:28:17.490Z,1.67
2018-12-25T11:30:47.228Z,1.80
2018-12-25T11:33:17.163Z,1.53
2018-12-25T11:35:48.537Z,1.90
2018-12-25T11:38:18.213Z,2.10
2018-12-25T11:40:47.984Z,1.87
2018-12-25T11:43:17.674Z,1.40
2018-12-25T11:45:47.393Z,1.70
2018-12-25T11:48:17.104Z,1.70
2018-12-25T11:50:46.808Z,1.67
2018-12-25T11:53:16.498Z,1.60
2018-12-25T11:55:46.215Z,1.50
2018-12-25T11:58:15.913Z,1.70
2018-12-25T12:00:45.649Z,2.80
2018-12-25T12:03:17.060Z,1.53
2018-12-25T12:05:46.783Z,1.63
2018-12-25T12:08:16.530Z,1.60
2018-12-25T12:10:46.258Z,1.37
2018-12-25T12:13:16.046Z,1.47
2018-12-25T12:15:47.241Z,1.53
2018-12-25T12:18:16.957Z,1.67
2018-12-25T12:20:46.663Z,1.30
2018-12-25T12:23:16.374Z,1.80
2018-12-25T12:25:46.092Z,2.20
2018-12-25T12:28:15.781Z,1.63
2018-12-25T12:30:47.008Z,1.87
2018-12-25T12:33:18.021Z,1.60
2018-12-25T12:35:47.729Z,1.80
2018-12-25T12:38:17.466Z,1.60
2018-12-25T12:40:47.297Z,2.27
2018-12-25T12:43:19.886Z,1.80
2018-12-25T12:45:49.594Z,1.60
2018-12-25T12:48:19.273Z,2.70
2018-12-25T12:50:49.046Z,2.00
2018-12-25T12:53:18.743Z,1.80
2018-12-25T12:55:48.477Z,1.77
2018-12-25T12:58:18.175Z,1.63
2018-12-25T13:00:47.875Z,1.57
2018-12-25T13:03:17.587Z,1.80
2018-12-25T13:05:47.307Z,1.60
2018-12-25T13:08:17.026Z,1.80
2018-12-25T13:10:46.765Z,1.60
2018-12-25T13:13:16.523Z,1.70
2018-12-25T13:15:46.261Z,1.70
2018-12-25T13:18:15.948Z,2.27
2018-12-25T13:20:45.643Z,2.57
2018-12-25T13:23:15.341Z,1.33
2018-12-25T13:25:45.032Z,1.67
2018-12-25T13:28:14.751Z,1.90
2018-12-25T13:30:44.563Z,1.80
2018-12-25T13:33:14.252Z,2.00
2018-12-25T13:35:43.944Z,1.70
2018-12-25T13:38:13.681Z,1.80
2018-12-25T13:40:43.467Z,1.57
2018-12-25T13:43:13.231Z,2.00
2018-12-25T13:45:44.077Z,2.00
2018-12-25T13:48:14.026Z,1.70
2018-12-25T13:50:43.664Z,1.63
2018-12-25T13:53:13.394Z,1.60
2018-12-25T13:55:43.151Z,1.63
2018-12-25T13:58:12.868Z,1.70
2018-12-25T14:00:42.630Z,1.60
2018-12-25T14:03:12.392Z,1.73
2018-12-25T14:05:42.092Z,1.73
2018-12-25T14:08:12.109Z,1.53
2018-12-25T14:10:41.929Z,1.40
2018-12-25T14:13:11.835Z,2.03
2018-12-25T14:15:41.545Z,1.40
2018-12-25T14:18:11.269Z,1.50
2018-12-25T14:20:41.075Z,1.20
2018-12-25T14:23:11.321Z,1.43
2018-12-25T14:25:42.503Z,2.43
2018-12-25T14:28:12.231Z,1.47
2018-12-25T14:30:41.926Z,2.33
2018-12-25T14:33:13.291Z,1.73
2018-12-25T14:35:43.024Z,1.90
2018-12-25T14:38:12.756Z,1.80
2018-12-25T14:40:42.517Z,2.40
2018-12-25T14:43:12.300Z,2.17
2018-12-25T14:45:42.121Z,2.73
2018-12-25T14:48:11.866Z,2.23
2018-12-25T14:50:42.383Z,2.43
2018-12-25T14:53:19.544Z,1.90
2018-12-25T14:55:43.581Z,2.00
2018-12-25T15:01:49.943Z,2.10
2018-12-25T15:04:23.652Z,2.20
2018-12-25T15:06:54.342Z,2.43
2018-12-25T15:09:53.365Z,2.43
2018-12-25T15:12:32.792Z,3.50
2018-12-25T15:15:07.669Z,2.33
2018-12-25T15:17:47.909Z,2.23
2018-12-25T15:20:22.059Z,2.80
2018-12-25T15:22:54.862Z,3.03
2018-12-25T15:25:38.998Z,2.33
2018-12-25T15:28:21.188Z,2.47
2018-12-25T15:30:54.273Z,2.37
2018-12-25T15:33:34.103Z,2.47
2018-12-25T15:36:22.802Z,2.60
2018-12-25T15:39:17.462Z,2.90
2018-12-25T15:41:48.351Z,2.73
2018-12-25T15:44:18.152Z,3.50
2018-12-25T15:47:13.315Z,2.97
2018-12-25T15:49:43.067Z,5.20
2018-12-25T15:52:12.772Z,3.10
2018-12-25T15:54:43.799Z,2.83
2018-12-25T15:57:30.150Z,3.07
2018-12-25T16:00:10.016Z,2.87
2018-12-25T16:02:42.599Z,3.60
2018-12-25T16:05:24.092Z,2.67
2018-12-25T16:07:58.654Z,4.57
2018-12-25T16:17:04.583Z,6.57
2018-12-25T16:19:47.918Z,2.80
2018-12-25T16:28:18.462Z,3.50
2018-12-25T16:30:48.232Z,2.80
2018-12-25T16:33:17.970Z,2.57
2018-12-25T16:35:53.483Z,2.83
2018-12-25T16:38:23.220Z,2.70
2018-12-25T16:40:52.952Z,2.60
2018-12-25T16:43:22.735Z,3.33
2018-12-25T16:46:04.873Z,2.67
2018-12-25T16:48:34.672Z,3.13
2018-12-25T16:51:04.462Z,2.90
2018-12-25T16:53:34.156Z,2.50
2018-12-25T16:56:04.017Z,2.67
2018-12-25T16:58:33.834Z,3.07
2018-12-25T17:01:03.537Z,2.10
2018-12-25T17:03:33.278Z,2.73
2018-12-25T17:06:04.334Z,2.23
2018-12-25T17:08:34.095Z,2.63
2018-12-25T17:11:03.773Z,2.23
2018-12-25T17:13:34.970Z,2.43
2018-12-25T17:16:04.876Z,2.20
2018-12-25T17:19:05.382Z,2.33
2018-12-25T17:21:40.547Z,3.60
2018-12-25T17:25:50.415Z,2.43
2018-12-25T17:26:50.779Z,2.70
2018-12-25T17:29:21.871Z,2.57
2018-12-25T17:32:03.743Z,2.87
2018-12-25T17:34:33.433Z,2.13
2018-12-25T17:37:43.060Z,2.83
2018-12-25T17:40:19.848Z,3.03
2018-12-25T17:45:59.618Z,2.77
2018-12-25T17:51:27.795Z,2.67
2018-12-25T17:53:57.501Z,2.40
2018-12-25T17:56:28.512Z,3.07
2018-12-25T17:58:58.233Z,2.43
2018-12-25T18:05:14.005Z,2.67
2018-12-25T18:12:08.507Z,3.47
2018-12-25T18:13:58.407Z,2.80
2018-12-25T18:16:44.487Z,2.30
2018-12-25T18:19:14.620Z,2.87
2018-12-25T18:21:49.231Z,2.43
2018-12-25T18:24:19.577Z,2.93
2018-12-25T18:30:01.545Z,2.50
2018-12-25T18:32:31.333Z,3.07
2018-12-25T18:35:01.112Z,2.83
2018-12-25T18:37:30.827Z,3.00
2018-12-25T18:40:00.531Z,2.73
2018-12-25T18:42:30.278Z,3.03
2018-12-25T18:44:59.985Z,4.43
2018-12-25T18:47:29.732Z,2.57
2018-12-25T18:49:59.458Z,2.60
2018-12-25T18:52:29.870Z,2.90
2018-12-25T18:55:00.842Z,2.57
2018-12-25T19:00:13.818Z,3.47
2018-12-25T19:02:46.090Z,2.63
2018-12-25T19:05:31.006Z,3.83
2018-12-25T19:08:02.439Z,3.57
2018-12-25T19:10:35.546Z,2.97
2018-12-25T19:13:17.158Z,3.20
2018-12-25T19:15:55.663Z,3.37
2018-12-25T19:18:36.000Z,3.67
2018-12-25T19:21:07.040Z,3.20
2018-12-25T19:23:41.453Z,3.63
2018-12-25T19:26:11.220Z,2.60
2018-12-25T19:28:40.932Z,3.00
2018-12-25T19:31:13.493Z,2.97
2018-12-25T19:33:43.254Z,3.63
2018-12-25T19:36:12.998Z,3.13
2018-12-25T19:38:44.039Z,2.93
2018-12-25T19:45:04.343Z,3.00
2018-12-25T19:47:39.346Z,2.50
2018-12-25T19:53:21.758Z,2.37
2018-12-25T19:56:01.086Z,3.40
2018-12-25T20:05:07.100Z,3.10
2018-12-25T20:11:05.630Z,3.10
2018-12-25T20:14:07.147Z,3.50
2018-12-25T20:17:16.522Z,3.77
2018-12-25T20:29:56.056Z,4.37
2018-12-25T20:33:10.715Z,3.50
2018-12-25T20:36:09.924Z,2.90
2018-12-25T20:38:49.719Z,3.50
2018-12-25T20:41:35.403Z,2.90
2018-12-25T20:44:20.562Z,2.77
2018-12-25T20:46:56.034Z,3.10
2018-12-25T20:49:45.286Z,2.80
2018-12-25T20:52:45.324Z,3.20
2018-12-25T20:55:44.834Z,2.40
2018-12-25T20:58:41.844Z,2.77
2018-12-25T21:01:30.910Z,2.37
2018-12-25T21:04:18.418Z,3.13
2018-12-25T21:06:53.894Z,2.73
2018-12-25T21:09:55.691Z,2.37
2018-12-25T21:12:46.619Z,2.33
2018-12-25T21:15:21.941Z,2.37
2018-12-25T21:18:09.579Z,2.73
2018-12-25T21:20:45.244Z,2.53
2018-12-25T21:23:51.076Z,3.60
2018-12-25T21:26:56.991Z,2.67
2018-12-25T21:29:27.191Z,3.23
2018-12-25T21:31:57.091Z,2.77
2018-12-25T21:34:27.081Z,2.13
2018-12-25T21:36:57.198Z,2.70
2018-12-25T21:39:27.122Z,3.33
2018-12-25T21:41:57.062Z,3.40
2018-12-25T21:44:26.834Z,2.97
2018-12-25T21:46:58.272Z,2.83
2018-12-25T21:49:27.962Z,3.30
2018-12-25T21:51:57.822Z,3.63
2018-12-25T21:54:27.588Z,3.43
2018-12-25T21:56:57.757Z,3.40
2018-12-25T21:59:30.267Z,3.40
2018-12-25T22:02:00.014Z,3.80
2018-12-25T22:04:29.828Z,4.80
2018-12-25T22:06:59.593Z,4.33
2018-12-25T22:09:29.286Z,4.90
2018-12-25T22:11:59.001Z,5.37
2018-12-25T22:14:28.776Z,6.03
2018-12-25T22:16:58.547Z,5.87
2018-12-25T22:19:28.312Z,5.80
2018-12-25T22:21:58.042Z,5.53
2018-12-25T22:24:27.816Z,6.23
2018-12-25T22:26:57.625Z,6.53
2018-12-25T22:29:27.339Z,6.73
2018-12-25T22:31:57.095Z,8.03
2018-12-25T22:34:26.818Z,7.17
2018-12-25T22:36:56.544Z,8.03
2018-12-25T22:39:26.256Z,7.87
2018-12-25T22:41:55.995Z,7.67
2018-12-25T22:44:25.787Z,8.67
2018-12-25T22:46:55.510Z,7.83
2018-12-25T22:49:25.249Z,8.83
2018-12-25T22:51:54.995Z,8.93
2018-12-25T22:54:24.755Z,9.60
2018-12-25T22:56:54.551Z,8.80
2018-12-25T22:59:24.260Z,8.60
2018-12-25T23:01:53.943Z,8.80
2018-12-25T23:04:23.680Z,8.20
2018-12-25T23:06:53.353Z,7.73
2018-12-25T23:09:23.720Z,9.00
2018-12-25T23:11:53.464Z,8.27
2018-12-25T23:14:23.189Z,8.57
2018-12-25T23:16:52.883Z,10.37
2018-12-25T23:19:22.620Z,9.10
2018-12-25T23:21:56.638Z,10.17
2018-12-25T23:24:26.485Z,10.10
2018-12-25T23:26:56.187Z,10.60
2018-12-25T23:29:25.902Z,9.80
2018-12-25T23:31:55.570Z,10.37
2018-12-25T23:34:25.298Z,10.50
2018-12-25T23:36:55.038Z,10.70
2018-12-25T23:39:24.797Z,10.00
2018-12-25T23:41:54.549Z,10.53
2018-12-25T23:44:24.244Z,10.63
2018-12-25T23:46:53.948Z,10.20
2018-12-25T23:49:23.699Z,9.93
2018-12-25T23:51:54.472Z,10.70
2018-12-25T23:54:28.111Z,9.80
2018-12-25T23:56:57.956Z,9.97
2018-12-25T23:59:29.069Z,9.70
